Wymer, West Virginia
Current Conditions -  °F | °C
As of 7:47 AM on Wednesday 26 Nov 2014 (Local Time) from KEKN Reporting Station
Light Snow Light Snow  
Wind Chill: 34°   Ceiling: 1700
Heat Index: 34°   Visibility: 2.5mi
Dew Point: 34°   Wind: 0mph
Humidity: 100%   Direction: NA
Pressure: 30.01"   Gusts: NA
Location:  38.9499°N, 79.6438°W
Report Text: KEKN 261247Z AUTO 00000KT 2 1/2SM -SN BR SCT011 OVC017 01/01 A3001 RMK AO2 RAE33SNB33 P0006 TSNO
Loading
Personal Weather Stations






























Interactive Weather Map New forecast layout! Learn more

10-Day Weather Forecast

Advertisements
Track Severe Weather on mobile